• Join FlightAware (Why Join?)
  • Login
  • US Flag 
03:24AM EDT


 

Airport Tracker/Info


-or-


 

Live Flight TrackerFlight Track Log ✈ JAL401 ✈ 29-Apr-2013 ✈ RJAA / NRT - EGLL / LHR

Flight Track Log - Related Links

Times and Time Zones

All times are in EDT time to prevent confusion due to time zone crossing. See the JAL401 flight status page for this flight to view local times or setup timezone preferences in your user account.

Time Position Orientation Groundspeed Altitude Reporting Facility
EDT Latitude Longitude Course Direction KTS MPH feet Rate Location/Type
11:20PM 35.7320 140.3990 149° Southeast 204 235 1,500  Level FlightAware
11:21PM 35.7090 140.4160 149° Southeast 214 246 2,500 2,160 Climbing FlightAware
11:21PM 35.6860 140.4330 149° Southeast 222 255 3,500 1,920 Climbing FlightAware
11:22PM 35.6710 140.4430 152° Southeast 239 275 3,800 1,320 Climbing FlightAware
11:22PM 35.6410 140.4640 150° Southeast 269 310 4,500 1,500 Climbing FlightAware
11:23PM 35.6130 140.4850 149° Southeast 288 331 5,200 2,040 Climbing FlightAware
11:23PM 35.5790 140.5090 150° Southeast 297 342 6,400 2,520 Climbing FlightAware
11:23PM 35.5590 140.5180 160° South 294 338 7,100 2,400 Climbing FlightAware
11:24PM 35.5260 140.5090 193° South 290 334 8,000 2,100 Climbing FlightAware
11:24PM 35.5120 140.4920 225° Southwest 289 333 8,500 1,980 Climbing FlightAware
11:24PM 35.5040 140.4690 247° West 287 330 9,000 1,980 Climbing FlightAware
11:25PM 35.5090 140.4270 278° West 281 323 10,000 2,100 Climbing FlightAware
11:25PM 35.5170 140.4120 303° West 285 328 10,400 1,500 Climbing FlightAware
11:25PM 35.5280 140.4000 318° Northwest 304 350 10,500 1,200 Climbing FlightAware
11:26PM 35.5900 140.3670 337° Northwest 334 384 11,500 1,500 Climbing FlightAware
11:27PM 35.6570 140.3320 337° Northwest 366 421 12,800 1,020 Climbing FlightAware
11:27PM 35.7090 140.3040 336° Northwest 371 427 12,900 60 Climbing FlightAware
11:28PM 35.7730 140.2700 337° Northwest 362 417 12,900  Level FlightAware
11:29PM 35.8600 140.2360 342° North 369 425 12,900  Level FlightAware
11:29PM 35.9130 140.2160 343° North 365 420 12,900 60 Level FlightAware
11:30PM 35.9870 140.1570 327° Northwest 361 415 13,000 960 Climbing FlightAware
11:31PM 36.0390 140.1030 320° Northwest 362 417 14,400 2,100 Climbing FlightAware
11:31PM 36.0920 140.0480 320° Northwest 376 433 15,800 2,160 Climbing FlightAware
11:32PM 36.1530 139.9840 320° Northwest 383 441 17,500 2,100 Climbing FlightAware
11:33PM 36.2080 139.9270 320° Northwest 382 440 18,800 1,920 Climbing FlightAware
11:34PM 36.2700 139.8620 320° Northwest 395 455 20,300 1,740 Climbing FlightAware
11:34PM 36.3220 139.7950 314° West 391 450 21,300 1,200 Climbing FlightAware
11:35PM 36.3700 139.7280 312° West 400 460 21,900 960 Climbing FlightAware
11:35PM 36.4000 139.7000 323° Northwest 400 460 22,300 1,080 Climbing FlightAware
11:36PM 36.4590 139.6740 340° North 408 470 22,900 480 Climbing FlightAware
11:37PM 36.5460 139.6410 343° North 416 479 23,000 120 Climbing FlightAware
11:37PM 36.6090 139.6100 338° Northwest 408 470 23,100 420 Climbing FlightAware
11:38PM 36.6960 139.5530 332° Northwest 418 481 23,600 480 Climbing FlightAware
11:39PM 36.7650 139.5080 332° Northwest 417 480 23,900 420 Climbing FlightAware
11:39PM 36.8410 139.4580 332° Northwest 422 486 24,200 480 Climbing FlightAware
11:40PM 36.9120 139.4120 333° Northwest 420 483 24,600 480 Climbing FlightAware
11:41PM 36.9800 139.3670 332° Northwest 422 486 24,900 660 Climbing FlightAware
11:41PM 37.0620 139.3130 332° Northwest 422 486 25,600 900 Climbing FlightAware
11:42PM 37.1310 139.2680 333° Northwest 435 501 26,200 960 Climbing FlightAware
11:43PM 37.2090 139.2170 332° Northwest 439 505 27,000 540 Climbing FlightAware
11:44PM 37.2750 139.1730 332° Northwest 438 504 27,000  Level FlightAware
11:44PM 37.3530 139.1210 332° Northwest 438 504 27,000 540 Level FlightAware
11:45PM 37.4310 139.0700 333° Northwest 443 510 27,800 1,080 Climbing FlightAware
11:46PM 37.5090 139.0180 332° Northwest 448 516 28,600 1,080 Climbing FlightAware
11:46PM 37.5910 138.9630 332° Northwest 452 520 29,400 900 Climbing FlightAware
11:47PM 37.6650 138.9130 332° Northwest 460 529 29,900 420 Climbing FlightAware
11:48PM 37.7390 138.8640 332° Northwest 467 537 30,000 60 Climbing FlightAware
11:48PM 37.8280 138.8050 332° Northwest 466 536 30,000  Level FlightAware
11:49PM 37.9030 138.7540 332° Northwest 465 535 30,000  Level FlightAware
11:50PM 37.9890 138.6960 332° Northwest 459 528 30,000  Level FlightAware
11:51PM 38.0600 138.6480 332° Northwest 457 526 30,000  Level FlightAware
11:51PM 38.1470 138.5880 332° Northwest 459 528 30,000  Level FlightAware
11:52PM 38.2170 138.5410 332° Northwest 461 531 30,000  Level FlightAware
11:53PM 38.2900 138.4910 332° Northwest 462 532 30,000  Level FlightAware
11:53PM 38.3790 138.4300 332° Northwest 462 532 30,000  Level FlightAware
11:54PM 38.4470 138.3840 332° Northwest 463 533 30,000  Level FlightAware
11:55PM 38.5420 138.3190 332° Northwest 463 533 30,000  Level FlightAware
11:55PM 38.6160 138.2670 331° Northwest 463 533 30,000  Level FlightAware
11:56PM 38.6880 138.2180 332° Northwest 463 533 30,000  Level FlightAware
11:57PM 38.7770 138.1560 331° Northwest 463 533 30,000  Level FlightAware
11:58PM 38.8480 138.1070 332° Northwest 463 533 30,000  Level FlightAware
11:58PM 38.9260 138.0520 331° Northwest 464 534 30,000  Level FlightAware
11:59PM 39.0080 137.9960 332° Northwest 458 527 30,000  Level FlightAware
12:00AM 39.0860 137.9410 331° Northwest 459 528 30,000  Level FlightAware
12:00AM 39.1720 137.8860 334° Northwest 472 543 30,000  Level FlightAware
12:02AM 39.3210 137.8810 359° North 484 557 30,000  Level FlightAware
12:02AM 39.4190 137.8900 North 482 555 30,000  Level FlightAware
12:03AM 39.5100 137.8970 North 481 554 30,000  Level FlightAware
12:04AM 39.5900 137.9040 North 479 551 30,000  Level FlightAware
12:04AM 39.6830 137.9110 North 479 551 30,000  Level FlightAware
12:05AM 39.7930 137.9200 North 468 539 30,000  Level FlightAware
12:06AM 39.9030 137.9280 North 467 537 30,000  Level FlightAware
12:07AM 39.9760 137.9330 North 467 537 30,000  Level FlightAware
12:07AM 40.1090 137.9460 North 468 539 30,000  Level FlightAware
12:08AM 40.1770 137.9510 North 467 537 30,000  Level FlightAware
12:09AM 40.2950 137.9610 North 468 539 30,000  Level FlightAware
12:09AM 40.3800 137.9680 North 469 540 30,000  Level FlightAware
12:10AM 40.5160 137.9790 North 464 534 30,000  Level FlightAware
12:11AM 40.6190 137.9880 North 464 534 30,000  Level FlightAware
12:12AM 40.7200 137.9960 North 464 534 30,000  Level FlightAware
12:13AM 40.8080 138.0030 North 471 542 30,000  Level FlightAware
12:14AM 40.9180 138.0120 North 470 541 30,000  Level FlightAware
12:14AM 41.0210 138.0210 North 469 540 30,000  Level FlightAware
12:15AM 41.1080 138.0280 North 467 537 30,000  Level FlightAware
12:16AM 41.1930 138.0350 North 469 540 30,000  Level FlightAware
12:16AM 41.2940 138.0440 North 471 542 30,000  Level FlightAware
12:17AM 41.3830 138.0520 North 470 541 30,000  Level FlightAware
12:18AM 41.4820 138.0600 North 470 541 30,000  Level FlightAware
12:19AM 41.5580 138.0660 North 469 540 30,000  Level FlightAware
12:19AM 41.6810 138.0770 North 468 539 30,000  Level FlightAware
12:20AM 41.7780 138.0850 North 469 540 30,000  Level FlightAware
12:21AM 41.8640 138.0930 North 468 539 30,000  Level FlightAware
12:22AM 41.9490 138.1000 North 468 539 30,000  Level FlightAware
12:22AM 42.0320 138.1070 North 469 540 30,000  Level FlightAware
12:23AM 42.1370 138.1160 North 469 540 30,000  Level FlightAware
12:24AM 42.2320 138.1240 North 465 535 30,000  Level FlightAware
12:24AM 42.3120 138.1310 North 466 536 30,000  Level FlightAware
12:25AM 42.4140 138.1400 North 466 536 30,000  Level FlightAware
12:26AM 42.5010 138.1480 North 464 534 30,000  Level FlightAware
12:27AM 42.6500 138.1600 North 464 534 30,000  Level FlightAware
12:28AM 42.7230 138.1660 North 464 534 30,000  Level FlightAware
12:28AM 42.7960 138.1710 North 464 534 30,000  Level FlightAware
12:29AM 42.8690 138.1760 North 464 534 30,000  Level FlightAware
12:30AM 42.9420 138.1810 North 464 534 30,000  Level FlightAware
12:30AM 43.0330 138.1880 North 464 534 30,000  Level FlightAware
12:31AM 43.1060 138.1930 North 464 534 30,000  Level FlightAware
12:32AM 43.1790 138.1980 North 464 534 30,000  Level FlightAware
12:32AM 43.2520 138.2030 North 464 534 30,000  Level FlightAware
12:33AM 43.3240 138.2090 North 464 534 30,000  Level FlightAware
12:34AM 43.4160 138.2150 North 464 534 30,000  Level FlightAware
12:35AM 43.4880 138.2200 North 464 534 30,000  Level FlightAware
12:35AM 43.5610 138.2260 North 464 534 30,000  Level FlightAware
12:36AM 43.6340 138.2310 North 464 534 30,000 -120 Level FlightAware
12:39AM 43.9187 138.0482 335° Northwest  Level Estimated
12:40AM 44.0302 137.9760 335° Northwest  Level Estimated
12:41AM 44.1417 137.9036 335° Northwest  Level Estimated
12:42AM 44.2532 137.8309 335° Northwest  Level Estimated
12:43AM 44.3646 137.7579 335° Northwest  Level Estimated
12:44AM 44.4759 137.6846 335° Northwest  Level Estimated
12:45AM 44.5872 137.6110 335° Northwest  Level Estimated
12:46AM 44.6985 137.5372 335° Northwest  Level Estimated
12:47AM 44.8097 137.4631 335° Northwest  Level Estimated
12:48AM 44.9209 137.3887 335° Northwest  Level Estimated
12:49AM 45.0320 137.3140 335° Northwest  Level Estimated
12:50AM 45.1432 137.2389 335° Northwest  Level Estimated
12:51AM 45.2544 137.1635 334° Northwest  Level Estimated
12:52AM 45.3656 137.0878 334° Northwest  Level Estimated
12:53AM 45.4766 137.0118 334° Northwest  Level Estimated
12:54AM 45.5877 136.9356 334° Northwest  Level Estimated
12:55AM 45.6986 136.8590 334° Northwest  Level Estimated
12:56AM 45.8096 136.7821 334° Northwest  Level Estimated
12:57AM 45.9204 136.7049 334° Northwest  Level Estimated
12:58AM 46.0313 136.6274 334° Northwest  Level Estimated
12:58AM 46.6380 138.0120 334° Northwest 472 543 28,000  Level FlightAware
12:59AM 46.7670 137.9480 341° North 473 544 28,000  Level FlightAware
01:00AM 46.8520 137.9070 342° North 473 544 28,000  Level FlightAware
01:00AM 46.9350 137.8660 341° North 472 543 28,000  Level FlightAware
01:01AM 47.0270 137.8210 342° North 470 541 28,000  Level FlightAware
01:02AM 47.0930 137.7880 341° North 472 543 28,000  Level FlightAware
01:03AM 47.2270 137.7220 342° North 474 545 28,000  Level FlightAware
01:03AM 47.3100 137.6810 341° North 472 543 28,000  Level FlightAware
01:04AM 47.4270 137.6220 341° North 474 545 28,000  Level FlightAware
01:05AM 47.5260 137.5720 341° North 480 552 28,000  Level FlightAware
01:06AM 47.5980 137.5360 341° North 481 554 28,000  Level FlightAware
01:06AM 47.6850 137.4930 342° North 481 554 28,000  Level FlightAware
01:07AM 47.7820 137.4430 341° North 482 555 28,000  Level FlightAware
01:08AM 47.8700 137.3980 341° North 481 554 28,000  Level FlightAware
01:09AM 47.9610 137.3520 341° North 482 555 28,000  Level FlightAware
01:09AM 48.0500 137.3070 341° North 485 558 28,000  Level FlightAware
01:10AM 48.1260 137.2680 341° North 485 558 28,000  Level FlightAware
01:11AM 48.2260 137.2160 341° North 486 559 28,000  Level FlightAware
01:11AM 48.3020 137.1770 341° North 484 557 28,000  Level FlightAware
01:12AM 48.4020 137.1250 341° North 484 557 28,000  Level FlightAware
01:13AM 48.4940 137.0770 341° North 485 558 28,000  Level FlightAware
01:13AM 48.5740 137.0360 341° North 485 558 28,000  Level FlightAware
01:14AM 48.6760 136.9820 341° North 488 562 28,000  Level FlightAware
01:15AM 48.8240 136.9040 341° North 488 562 28,000  Level FlightAware
01:16AM 48.9020 136.8620 341° North 487 560 28,000  Level FlightAware
01:17AM 49.0070 136.8060 341° North 487 560 28,000  Level FlightAware
01:17AM 49.0890 136.7620 341° North 489 563 28,000  Level FlightAware
01:18AM 49.1750 136.7150 340° North 490 564 28,000  Level FlightAware
01:19AM 49.2560 136.6710 340° North 487 560 28,000  Level FlightAware
01:19AM 49.3470 136.6210 340° North 482 555 28,000  Level FlightAware
01:20AM 49.4440 136.5640 339° North 481 554 28,000  Level FlightAware
01:21AM 49.4990 136.5190 332° Northwest 483 556 28,000  Level FlightAware
01:22AM 49.6050 136.4250 330° Northwest 481 554 28,000  Level FlightAware
01:22AM 49.6790 136.3540 328° Northwest 483 556 28,000  Level FlightAware
01:23AM 49.7590 136.2760 328° Northwest 483 556 28,000  Level FlightAware
01:24AM 49.8470 136.1910 328° Northwest 481 554 28,000  Level FlightAware
01:24AM 49.9180 136.1230 328° Northwest 480 552 28,000  Level FlightAware
01:25AM 49.9890 136.0540 328° Northwest 479 551 28,000  Level FlightAware
01:26AM 50.0720 135.9740 328° Northwest 481 554 28,000  Level FlightAware
01:27AM 50.1840 135.8650 328° Northwest 482 555 28,000  Level FlightAware
01:27AM 50.2670 135.7840 328° Northwest 480 552 28,000  Level FlightAware
01:28AM 50.3570 135.6950 328° Northwest 481 554 28,000  Level FlightAware
01:29AM 50.4460 135.6070 328° Northwest 481 554 28,000  Level FlightAware
01:30AM 50.5230 135.5300 328° Northwest 481 554 28,000  Level FlightAware
01:30AM 50.6080 135.4450 328° Northwest 481 554 28,000  Level FlightAware
01:31AM 50.6960 135.3570 328° Northwest 482 555 28,000  Level FlightAware
01:32AM 50.7820 135.2700 327° Northwest 483 556 28,000  Level FlightAware
01:33AM 50.8630 135.1890 328° Northwest 483 556 28,000  Level FlightAware
01:33AM 50.9180 135.1330 327° Northwest 483 556 28,000  Level FlightAware
01:34AM 51.0530 135.0010 328° Northwest 485 558 28,000  Level FlightAware
01:35AM 51.1230 134.9320 328° Northwest 486 559 28,000  Level FlightAware
01:36AM 51.1760 134.8790 328° Northwest 486 559 28,000  Level FlightAware
01:37AM 51.3070 134.7480 328° Northwest 488 562 28,000  Level FlightAware
01:37AM 51.3750 134.6790 328° Northwest 488 562 28,000  Level FlightAware
01:38AM 51.4570 134.5960 328° Northwest 489 563 28,000  Level FlightAware
01:39AM 51.5210 134.5320 328° Northwest 490 564 28,000  Level FlightAware
01:40AM 51.5950 134.4580 328° Northwest 490 564 28,000  Level FlightAware
01:40AM 51.6870 134.3640 328° Northwest 489 563 28,000  Level FlightAware
01:41AM 51.7700 134.2780 327° Northwest 489 563 28,000  Level FlightAware
01:42AM 51.8340 134.2110 327° Northwest 489 563 28,000  Level FlightAware
01:42AM 51.8990 134.1430 327° Northwest 489 563 28,000  Level FlightAware
01:43AM 51.9790 134.0580 327° Northwest 489 563 28,000  Level FlightAware
01:44AM 52.0440 133.9900 327° Northwest 489 563 28,000  Level FlightAware
01:47AM 52.3200 133.7465 332° Northwest  Level Estimated
01:48AM 52.4281 133.6502 331° Northwest  Level Estimated
01:49AM 52.5361 133.5534 331° Northwest  Level Estimated
01:50AM 52.6440 133.4561 331° Northwest  Level Estimated
01:51AM 52.7518 133.3584 331° Northwest  Level Estimated
01:52AM 52.8596 133.2601 331° Northwest  Level Estimated
01:53AM 52.9673 133.1614 331° Northwest  Level Estimated
01:54AM 53.0749 133.0622 331° Northwest  Level Estimated
01:55AM 53.1826 132.9624 331° Northwest  Level Estimated
01:56AM 53.2901 132.8620 331° Northwest  Level Estimated
01:57AM 53.3977 132.7611 331° Northwest  Level Estimated
01:58AM 53.5051 132.6597 331° Northwest  Level Estimated
01:59AM 53.6124 132.5579 331° Northwest  Level Estimated
02:00AM 53.7197 132.4554 331° Northwest  Level Estimated
02:01AM 53.8268 132.3525 330° Northwest  Level Estimated
02:02AM 53.9339 132.2491 330° Northwest  Level Estimated
02:03AM 54.0409 132.1451 330° Northwest  Level Estimated
02:04AM 54.1478 132.0405 330° Northwest  Level Estimated
02:05AM 54.2546 131.9355 330° Northwest  Level Estimated
02:06AM 54.3613 131.8298 330° Northwest  Level Estimated
02:07AM 54.4679 131.7237 330° Northwest  Level Estimated
02:08AM 54.5744 131.6170 330° Northwest  Level Estimated
02:09AM 54.6808 131.5097 330° Northwest  Level Estimated
02:10AM 54.7872 131.4018 330° Northwest  Level Estimated
02:11AM 54.8934 131.2934 330° Northwest  Level Estimated
02:12AM 54.9995 131.1844 330° Northwest  Level Estimated
02:13AM 55.1056 131.0749 329° Northwest  Level Estimated
02:14AM 55.2115 130.9648 329° Northwest  Level Estimated
02:15AM 55.3173 130.8540 329° Northwest  Level Estimated
02:16AM 55.4232 130.7425 329° Northwest  Level Estimated
02:17AM 55.5290 130.6305 329° Northwest  Level Estimated
02:18AM 55.6347 130.5178 329° Northwest  Level Estimated
02:19AM 55.7403 130.4045 329° Northwest  Level Estimated
02:20AM 55.8458 130.2906 329° Northwest  Level Estimated
02:21AM 55.9511 130.1760 329° Northwest  Level Estimated
02:22AM 56.0564 130.0609 329° Northwest  Level Estimated
02:23AM 56.1616 129.9451 328° Northwest  Level Estimated
02:24AM 56.2666 129.8287 328° Northwest  Level Estimated
02:25AM 56.3716 129.7116 328° Northwest  Level Estimated
02:26AM 56.4764 129.5939 328° Northwest  Level Estimated
02:27AM 56.5811 129.4755 328° Northwest  Level Estimated
02:28AM 56.6857 129.3565 328° Northwest  Level Estimated
02:29AM 56.7902 129.2368 328° Northwest  Level Estimated
02:30AM 56.8946 129.1165 328° Northwest  Level Estimated
02:31AM 56.9988 128.9955 328° Northwest  Level Estimated
02:32AM 57.1030 128.8738 328° Northwest  Level Estimated
02:33AM 57.2070 128.7514 328° Northwest  Level Estimated
02:34AM 57.3109 128.6283 327° Northwest  Level Estimated
02:35AM 57.4147 128.5045 327° Northwest  Level Estimated
02:36AM 57.5183 128.3800 327° Northwest  Level Estimated
02:37AM 57.6219 128.2548 327° Northwest  Level Estimated
02:38AM 57.7253 128.1289 327° Northwest  Level Estimated
02:39AM 57.8286 128.0023 327° Northwest  Level Estimated
02:40AM 57.9317 127.8750 327° Northwest  Level Estimated
02:41AM 58.0348 127.7469 327° Northwest  Level Estimated
02:42AM 58.1377 127.6180 327° Northwest  Level Estimated
02:43AM 58.2404 127.4885 326° Northwest  Level Estimated
02:44AM 58.3431 127.3582 326° Northwest  Level Estimated
02:45AM 58.4456 127.2271 326° Northwest  Level Estimated
02:46AM 58.5480 127.0952 326° Northwest  Level Estimated
02:47AM 58.6502 126.9626 326° Northwest  Level Estimated
02:48AM 58.7523 126.8292 326° Northwest  Level Estimated
02:49AM 58.8544 126.6948 326° Northwest  Level Estimated
02:50AM 58.9564 126.5597 326° Northwest  Level Estimated
02:51AM 59.0582 126.4237 326° Northwest  Level Estimated
02:52AM 59.1599 126.2869 325° Northwest  Level Estimated
02:53AM 59.2614 126.1493 325° Northwest  Level Estimated
02:54AM 59.3628 126.0109 325° Northwest  Level Estimated
02:55AM 59.4641 125.8716 325° Northwest  Level Estimated
02:56AM 59.5651 125.7316 325° Northwest  Level Estimated
02:57AM 59.6661 125.5906 325° Northwest  Level Estimated
02:58AM 59.7669 125.4489 325° Northwest  Level Estimated
02:59AM 59.8675 125.3062 325° Northwest  Level Estimated
03:00AM 59.9680 125.1627 324° Northwest  Level Estimated
03:01AM 60.0683 125.0183 324° Northwest  Level Estimated
03:02AM 60.1685 124.8731 324° Northwest  Level Estimated
03:03AM 60.2685 124.7270 324° Northwest  Level Estimated
03:04AM 60.3684 124.5799 324° Northwest  Level Estimated
03:05AM 60.4680 124.4320 324° Northwest  Level Estimated
03:06AM 60.5676 124.2831 324° Northwest  Level Estimated
03:07AM 60.6669 124.1334 324° Northwest  Level Estimated
03:08AM 60.7661 123.9827 323° Northwest  Level Estimated
03:09AM 60.8651 123.8310 323° Northwest  Level Estimated
03:10AM 60.9641 123.6783 323° Northwest  Level Estimated
03:11AM 61.0629 123.5245 323° Northwest  Level Estimated
03:12AM 61.1615 123.3698 323° Northwest  Level Estimated
03:13AM 61.2600 123.2141 323° Northwest  Level Estimated
03:14AM 61.3582 123.0575 323° Northwest  Level Estimated
03:15AM 61.4563 122.8998 323° Northwest  Level Estimated
03:16AM 61.5543 122.7412 322° Northwest  Level Estimated
03:17AM 61.6520 122.5816 322° Northwest  Level Estimated
03:18AM 61.7495 122.4209 322° Northwest  Level Estimated
03:19AM 61.8469 122.2593 322° Northwest  Level Estimated
03:20AM 61.9440 122.0966 322° Northwest  Level Estimated
03:21AM 62.0410 121.9328 322° Northwest  Level Estimated
03:22AM 62.1378 121.7681 322° Northwest  Level Estimated
03:23AM 62.2344 121.6022 321° Northwest  Level Estimated
03:24AM 62.3307 121.4353 321° Northwest  Level Estimated
03:25AM 62.4269 121.2673 321° Northwest  Level Estimated
03:26AM 62.5229 121.0983 321° Northwest  Level Estimated
03:27AM 62.6187 120.9281 321° Northwest  Level Estimated
03:28AM 62.7142 120.7569 321° Northwest  Level Estimated
03:29AM 62.8096 120.5845 320° Northwest  Level Estimated
03:30AM 62.9047 120.4110 320° Northwest  Level Estimated
03:31AM 62.9996 120.2364 320° Northwest  Level Estimated
03:32AM 63.0943 120.0607 320° Northwest  Level Estimated
03:33AM 63.1888 119.8838 320° Northwest  Level Estimated
03:34AM 63.2831 119.7058 320° Northwest  Level Estimated
03:35AM 63.3771 119.5266 320° Northwest  Level Estimated
03:36AM 63.4710 119.3462 319° Northwest  Level Estimated
03:37AM 63.5645 119.1646 319° Northwest  Level Estimated
03:38AM 63.6579 118.9818 319° Northwest  Level Estimated
03:39AM 63.7510 118.7978 319° Northwest  Level Estimated
03:40AM 63.8439 118.6126 319° Northwest  Level Estimated
03:41AM 63.9366 118.4262 319° Northwest  Level Estimated
03:42AM 64.0290 118.2386 318° Northwest  Level Estimated
03:43AM 64.1211 118.0497 318° Northwest  Level Estimated
03:44AM 64.2131 117.8595 318° Northwest  Level Estimated
03:45AM 64.3046 117.6684 318° Northwest  Level Estimated
03:46AM 64.3959 117.4760 318° Northwest  Level Estimated
03:47AM 64.4869 117.2823 318° Northwest  Level Estimated
03:48AM 64.5777 117.0873 317° Northwest  Level Estimated
03:49AM 64.6682 116.8910 317° Northwest  Level Estimated
03:50AM 64.7585 116.6934 317° Northwest  Level Estimated
03:51AM 64.8485 116.4945 317° Northwest  Level Estimated
03:52AM 64.9382 116.2942 317° Northwest  Level Estimated
03:53AM 65.0276 116.0926 316° Northwest  Level Estimated
03:54AM 65.1168 115.8896 316° Northwest  Level Estimated
03:55AM 65.2057 115.6853 316° Northwest  Level Estimated
03:56AM 65.2943 115.4796 316° Northwest  Level Estimated
03:57AM 65.3827 115.2726 316° Northwest  Level Estimated
03:58AM 65.4707 115.0641 316° Northwest  Level Estimated
03:59AM 65.5585 114.8542 315° West  Level Estimated
04:00AM 65.6460 114.6429 315° West  Level Estimated
04:01AM 65.7332 114.4302 315° West  Level Estimated
04:02AM 65.8201 114.2160 315° West  Level Estimated
04:03AM 65.9066 114.0004 315° West  Level Estimated
04:04AM 65.9929 113.7833 314° West  Level Estimated
04:05AM 66.0789 113.5647 314° West  Level Estimated
04:06AM 66.1646 113.3447 314° West  Level Estimated
04:07AM 66.2499 113.1232 314° West  Level Estimated
04:08AM 66.3349 112.9002 314° West  Level Estimated
04:09AM 66.4196 112.6756 313° West  Level Estimated
04:10AM 66.5040 112.4496 313° West  Level Estimated
04:11AM 66.5881 112.2220 313° West  Level Estimated
04:12AM 66.6718 111.9929 313° West  Level Estimated
04:13AM 66.7552 111.7622 313° West  Level Estimated
04:14AM 66.8382 111.5299 312° West  Level Estimated
04:15AM 66.9209 111.2961 312° West  Level Estimated
04:16AM 67.0033 111.0607 312° West  Level Estimated
04:17AM 67.0853 110.8236 312° West  Level Estimated
04:18AM 67.1669 110.5850 311° West  Level Estimated
04:19AM 67.2483 110.3448 311° West  Level Estimated
04:20AM 67.3291 110.1033 311° West  Level Estimated
04:21AM 67.4095 109.8601 311° West  Level Estimated
04:22AM 67.4896 109.6153 311° West  Level Estimated
04:23AM 67.5693 109.3689 310° West  Level Estimated
04:24AM 67.6487 109.1208 310° West  Level Estimated
04:25AM 67.7276 108.8710 310° West  Level Estimated
04:26AM 67.8062 108.6195 310° West  Level Estimated
04:27AM 67.8844 108.3663 309° West  Level Estimated
04:28AM 67.9622 108.1115 309° West  Level Estimated
04:29AM 68.0396 107.8549 309° West  Level Estimated
04:30AM 68.1165 107.5966 309° West  Level Estimated
04:31AM 68.1931 107.3366 308° West  Level Estimated
04:32AM 68.2693 107.0748 308° West  Level Estimated
04:33AM 68.3451 106.8113 308° West  Level Estimated
04:34AM 68.4204 106.5461 308° West  Level Estimated
04:35AM 68.4953 106.2790 308° West  Level Estimated
04:36AM 68.5698 106.0102 307° West  Level Estimated
04:37AM 68.6439 105.7397 307° West  Level Estimated
04:38AM 68.7175 105.4673 307° West  Level Estimated
04:39AM 68.7907 105.1931 307° West  Level Estimated
04:40AM 68.8634 104.9171 306° West  Level Estimated
04:41AM 68.9357 104.6394 306° West  Level Estimated
04:42AM 69.0076 104.3597 306° West  Level Estimated
04:43AM 69.0789 104.0783 305° West  Level Estimated
04:44AM 69.1499 103.7950 305° West  Level Estimated
04:45AM 69.2203 103.5099 305° West  Level Estimated
04:46AM 69.2903 103.2230 305° West  Level Estimated
04:47AM 69.3598 102.9342 304° West  Level Estimated
04:48AM 69.4287 102.6439 304° West  Level Estimated
04:49AM 69.4971 102.3518 304° West  Level Estimated
04:50AM 69.5650 102.0578 304° West  Level Estimated
04:51AM 69.6324 101.7620 303° West  Level Estimated
04:52AM 69.6994 101.4642 303° West  Level Estimated
04:53AM 69.7658 101.1646 303° West  Level Estimated
04:54AM 69.8317 100.8632 302° West  Level Estimated
04:55AM 69.8971 100.5598 302° West  Level Estimated
04:56AM 69.9620 100.2545 302° West  Level Estimated
04:57AM 70.0264 99.9474 302° West  Level Estimated
04:58AM 70.0902 99.6383 301° West  Level Estimated
04:59AM 70.1535 99.3274 301° West  Level Estimated
05:00AM 70.2162 99.0145 301° West  Level Estimated
05:01AM 70.2784 98.6998 300° West  Level Estimated
05:02AM 70.3400 98.3831 300° West  Level Estimated
05:03AM 70.4011 98.0645 300° West  Level Estimated
05:04AM 70.4616 97.7441 300° West  Level Estimated
05:05AM 70.5216 97.4217 299° West  Level Estimated
05:06AM 70.5810 97.0974 299° West  Level Estimated
05:07AM 70.6398 96.7712 299° West  Level Estimated
05:08AM 70.6980 96.4432 298° West  Level Estimated
05:09AM 70.7556 96.1132 298° West  Level Estimated
05:10AM 70.8126 95.7813 298° West  Level Estimated
05:11AM 70.8690 95.4475 297° West  Level Estimated
05:12AM 70.9249 95.1119 297° West  Level Estimated
05:13AM 70.9801 94.7743 297° West  Level Estimated
05:14AM 71.0347 94.4349 296° West  Level Estimated
05:15AM 71.0887 94.0936 296° West  Level Estimated
05:16AM 71.1420 93.7504 296° West  Level Estimated
05:17AM 71.1947 93.4054 295° West  Level Estimated
05:18AM 71.2468 93.0585 295° West  Level Estimated
05:19AM 71.2982 92.7097 295° West  Level Estimated
05:20AM 71.3490 92.3591 295° West  Level Estimated
05:21AM 71.3992 92.0067 294° West  Level Estimated
05:22AM 71.4486 91.6524 294° West  Level Estimated
05:23AM 71.4975 91.2964 294° West  Level Estimated
05:24AM 71.5456 90.9385 293° West  Level Estimated
05:25AM 71.5931 90.5788 293° West  Level Estimated
05:26AM 71.6398 90.2174 292° West  Level Estimated
05:27AM 71.6860 89.8542 292° West  Level Estimated
05:28AM 71.7314 89.4892 292° West  Level Estimated
05:29AM 71.7761 89.1225 291° West  Level Estimated
05:30AM 71.8201 88.7540 291° West  Level Estimated
05:31AM 71.8634 88.3839 291° West  Level Estimated
05:32AM 71.9060 88.0120 290° West  Level Estimated
05:33AM 71.9479 87.6385 290° West  Level Estimated
05:34AM 71.9891 87.2632 290° West  Level Estimated
05:35AM 72.0295 86.8864 289° West  Level Estimated
05:36AM 72.0692 86.5079 289° West  Level Estimated
05:37AM 72.1082 86.1278 289° West  Level Estimated
05:38AM 72.1464 85.7461 288° West  Level Estimated
05:39AM 72.1839 85.3629 288° West  Level Estimated
05:40AM 72.2206 84.9781 288° West  Level Estimated
05:41AM 72.2566 84.5918 287° West  Level Estimated
05:42AM 72.2919 84.2034 287° West  Level Estimated
05:43AM 72.3264 83.8135 286° West  Level Estimated
05:44AM 72.3601 83.4222 286° West  Level Estimated
05:45AM 72.3931 83.0294 286° West  Level Estimated
05:46AM 72.4253 82.6352 285° West  Level Estimated
05:47AM 72.4567 82.2396 285° West  Level Estimated
05:48AM 72.4873 81.8427 285° West  Level Estimated
05:49AM 72.5171 81.4445 284° West  Level Estimated
05:50AM 72.5461 81.0450 284° West  Level Estimated
05:51AM 72.5743 80.6441 283° West  Level Estimated
05:52AM 72.6017 80.2427 283° West  Level Estimated
05:53AM 72.6283 79.8400 283° West  Level Estimated
05:54AM 72.6541 79.4361 282° West  Level Estimated
05:55AM 72.6790 79.0311 282° West  Level Estimated
05:56AM 72.7032 78.6249 281° West  Level Estimated
05:57AM 72.7265 78.2177 281° West  Level Estimated
05:58AM 72.7490 77.8095 281° West  Level Estimated
05:59AM 72.7707 77.4002 280° West  Level Estimated
06:00AM 72.7915 76.9899 280° West  Level Estimated
06:01AM 72.8115 76.5787 280° West  Level Estimated
06:02AM 72.8307 76.1666 279° West  Level Estimated
06:03AM 72.8490 75.7536 279° West  Level Estimated
06:04AM 72.8665 75.3398 278° West  Level Estimated
06:05AM 72.8832 74.9252 278° West  Level Estimated
06:06AM 72.8990 74.5098 278° West  Level Estimated
06:07AM 72.9140 74.0937 277° West  Level Estimated
06:08AM 72.9281 73.6769 277° West  Level Estimated
06:09AM 72.9413 73.2594 276° West  Level Estimated
06:10AM 72.9537 72.8414 276° West  Level Estimated
06:11AM 72.9653 72.4228 276° West  Level Estimated
06:12AM 72.9760 72.0036 275° West  Level Estimated
06:13AM 72.9858 71.5839 275° West  Level Estimated
06:14AM 72.9948 71.1638 274° West  Level Estimated
06:15AM 73.0029 70.7433 274° West  Level Estimated
06:16AM 73.0101 70.3224 274° West  Level Estimated
06:17AM 73.0165 69.9012 273° West  Level Estimated
06:18AM 73.0220 69.4798 273° West  Level Estimated
06:19AM 73.0267 69.0580 272° West  Level Estimated
06:20AM 73.0304 68.6361 272° West  Level Estimated
06:21AM 73.0333 68.2140 272° West  Level Estimated
06:22AM 73.0354 67.7917 271° West  Level Estimated
06:23AM 73.0366 67.3695 271° West  Level Estimated
06:24AM 73.0369 66.9471 270° West  Level Estimated
06:25AM 73.0363 66.5248 270° West  Level Estimated
06:26AM 73.0349 66.1019 270° West  Level Estimated
06:27AM 73.0326 65.6791 269° West  Level Estimated
06:28AM 73.0294 65.2564 269° West  Level Estimated
06:29AM 73.0254 64.8339 268° West  Level Estimated
06:30AM 73.0205 64.4117 268° West  Level Estimated
06:31AM 73.0147 63.9897 268° West  Level Estimated
06:32AM 73.0080 63.5679 267° West  Level Estimated
06:33AM 73.0005 63.1465 267° West  Level Estimated
06:34AM 72.9921 62.7256 266° West  Level Estimated
06:35AM 72.9829 62.3050 266° West  Level Estimated
06:36AM 72.9728 61.8849 266° West  Level Estimated
06:37AM 72.9618 61.4653 265° West  Level Estimated
06:38AM 72.9500 61.0462 265° West  Level Estimated
06:39AM 72.9373 60.6278 264° West  Level Estimated
06:40AM 72.9237 60.2099 264° West  Level Estimated
06:41AM 72.9093 59.7927 263° West  Level Estimated
06:42AM 72.8941 59.3762 263° West  Level Estimated
06:43AM 72.8780 58.9605 263° West  Level Estimated
06:44AM 72.8610 58.5455 262° West  Level Estimated
06:45AM 72.8432 58.1314 262° West  Level Estimated
06:46AM 72.8246 57.7181 262° West  Level Estimated
06:47AM 72.8051 57.3057 261° West  Level Estimated
06:48AM 72.7848 56.8942 261° West  Level Estimated
06:49AM 72.7637 56.4836 260° West  Level Estimated
06:50AM 72.7417 56.0741 260° West  Level Estimated
06:51AM 72.7189 55.6656 260° West  Level Estimated
06:52AM 72.6953 55.2582 259° West  Level Estimated
06:53AM 72.6708 54.8512 259° West  Level Estimated
06:54AM 72.6455 54.4454 258° West  Level Estimated
06:55AM 72.6194 54.0408 258° West  Level Estimated
06:56AM 72.5925 53.6374 258° West  Level Estimated
06:57AM 72.5647 53.2352 257° West  Level Estimated
06:58AM 72.5362 52.8342 257° West  Level Estimated
06:59AM 72.5068 52.4346 256° West  Level Estimated
07:00AM 72.4767 52.0362 256° West  Level Estimated
07:01AM 72.4458 51.6392 256° West  Level Estimated
07:02AM 72.4140 51.2435 255° West  Level Estimated
07:03AM 72.3815 50.8493 255° West  Level Estimated
07:04AM 72.3483 50.4565 255° West  Level Estimated
07:05AM 72.3142 50.0651 254° West  Level Estimated
07:06AM 72.2794 49.6752 254° West  Level Estimated
07:07AM 72.2438 49.2868 253° West  Level Estimated
07:08AM 72.2074 48.8999 253° West  Level Estimated
07:09AM 72.1703 48.5146 253° West  Level Estimated
07:10AM 72.1324 48.1308 252° West  Level Estimated
07:11AM 72.0938 47.7486 252° West  Level Estimated
07:12AM 72.0544 47.3680 252° West  Level Estimated
07:13AM 72.0143 46.9891 251° West  Level Estimated
07:14AM 71.9735 46.6118 251° West  Level Estimated
07:15AM 71.9319 46.2361 251° West  Level Estimated
07:16AM 71.8897 45.8622 250° West  Level Estimated
07:17AM 71.8467 45.4899 250° West  Level Estimated
07:18AM 71.8029 45.1193 249° West  Level Estimated
07:19AM 71.7585 44.7505 249° West  Level Estimated
07:20AM 71.7134 44.3834 249° West  Level Estimated
07:21AM 71.6676 44.0181 248° West  Level Estimated
07:22AM 71.6211 43.6546 248° West  Level Estimated
07:23AM 71.5739 43.2928 248° West  Level Estimated
07:23AM 67.2180 40.4840 247° West 464 534 34,000  Level FlightAware
07:24AM 71.5260 42.9328 247° West  Level Estimated
07:24AM 67.1790 40.2390 248° West 465 535 34,000  Level FlightAware
07:25AM 67.1500 40.0590 248° West 465 535 34,000  Level FlightAware
07:25AM 67.1210 39.8850 247° West 465 535 34,000  Level FlightAware
07:26AM 67.0920 39.7120 247° West 465 535 34,000  Level FlightAware
07:27AM 67.0640 39.5390 248° West 465 535 34,000  Level FlightAware
07:28AM 67.0280 39.3240 247° West 465 535 34,000  Level FlightAware
07:28AM 66.9990 39.1510 247° West 465 535 34,000  Level FlightAware
07:29AM 66.9710 38.9790 247° West 465 535 34,000  Level FlightAware
07:30AM 66.9420 38.8070 247° West 465 535 34,000  Level FlightAware
07:30AM 66.9140 38.6350 248° West 465 535 34,000  Level FlightAware
07:31AM 66.8850 38.4640 247° West 465 535 34,000  Level FlightAware
07:34AM 66.7779 37.7095 251° West  Level Estimated
07:34AM 66.6520 37.2140 251° West 449 517 34,000  Level FlightAware
07:35AM 66.6240 37.0680 244° Southwest 448 516 34,000  Level FlightAware
07:36AM 66.5930 36.9080 244° Southwest 448 516 34,000  Level FlightAware
07:36AM 66.5550 36.7090 244° Southwest 448 516 34,000  Level FlightAware
07:37AM 66.5240 36.5500 244° Southwest 448 516 34,000  Level FlightAware
07:38AM 66.4930 36.3910 244° Southwest 448 516 34,000  Level FlightAware
07:38AM 66.4620 36.2330 244° Southwest 448 516 34,000  Level FlightAware
07:39AM 66.4230 36.0340 244° Southwest 448 516 34,000  Level FlightAware
07:40AM 66.3920 35.8760 244° Southwest 448 516 34,000  Level FlightAware
07:41AM 66.3620 35.7180 245° Southwest 448 516 34,000  Level FlightAware
07:41AM 66.3310 35.5600 244° Southwest 448 516 34,000  Level FlightAware
07:42AM 66.3000 35.4030 244° Southwest 448 516 34,000  Level FlightAware
07:43AM 66.2610 35.2060 244° Southwest 448 516 34,000  Level FlightAware
07:43AM 66.2300 35.0490 244° Southwest 448 516 34,000  Level FlightAware
07:44AM 66.1990 34.8920 244° Southwest 448 516 34,000  Level FlightAware
07:47AM 66.0848 34.2197 248° West  Level Estimated
07:48AM 66.0361 33.9398 247° West  Level Estimated
07:49AM 65.9869 33.6609 247° West  Level Estimated
07:50AM 65.9372 33.3832 246° West  Level Estimated
07:51AM 65.8870 33.1065 246° West  Level Estimated
07:52AM 65.8363 32.8310 246° West  Level Estimated
07:53AM 65.7851 32.5565 246° West  Level Estimated
07:54AM 65.7334 32.2831 245° Southwest  Level Estimated
07:55AM 65.6812 32.0108 245° Southwest  Level Estimated
07:56AM 65.6285 31.7396 245° Southwest  Level Estimated
07:57AM 65.5754 31.4696 245° Southwest  Level Estimated
07:57AM 65.3250 31.1280 245° Southwest 457 526 34,000  Level FlightAware
07:58AM 65.2890 30.9890 238° Southwest 457 526 34,000  Level FlightAware
07:58AM 65.2310 30.7570 239° Southwest 457 526 34,000  Level FlightAware
07:59AM 65.1880 30.5870 239° Southwest 459 528 34,000  Level FlightAware
08:00AM 65.1450 30.4190 239° Southwest 459 528 34,000  Level FlightAware
08:00AM 65.1000 30.2470 238° Southwest 458 527 34,000  Level FlightAware
08:01AM 65.0320 29.9870 238° Southwest 459 528 34,000  Level FlightAware
08:02AM 64.9820 29.8010 238° Southwest 459 528 34,000  Level FlightAware
08:03AM 64.9380 29.6330 238° Southwest 460 529 34,000  Level FlightAware
08:03AM 64.8980 29.4870 237° Southwest 461 531 34,000  Level FlightAware
08:04AM 64.8460 29.3030 236° Southwest 462 532 34,000  Level FlightAware
08:05AM 64.8020 29.1480 236° Southwest 464 534 34,000  Level FlightAware
08:06AM 64.7380 28.9230 236° Southwest 465 535 34,000  Level FlightAware
08:06AM 64.6910 28.7560 237° Southwest 464 534 34,000  Level FlightAware
08:07AM 64.6430 28.5910 236° Southwest 465 535 34,000  Level FlightAware
08:08AM 64.5870 28.4000 236° Southwest 466 536 34,000  Level FlightAware
08:08AM 64.5450 28.2540 236° Southwest 466 536 34,000  Level FlightAware
08:09AM 64.4850 28.0530 235° Southwest 467 537 34,000  Level FlightAware
08:10AM 64.4360 27.8890 235° Southwest 467 537 34,000  Level FlightAware
08:11AM 64.3870 27.7220 236° Southwest 468 539 34,000  Level FlightAware
08:11AM 64.3370 27.5580 235° Southwest 469 540 34,000  Level FlightAware
08:12AM 64.2830 27.3800 235° Southwest 469 540 34,000  Level FlightAware
08:13AM 64.2320 27.2150 235° Southwest 469 540 34,000  Level FlightAware
08:13AM 64.1750 27.0290 235° Southwest 468 539 34,000  Level FlightAware
08:14AM 64.1240 26.8680 234° Southwest 468 539 34,000  Level FlightAware
08:15AM 64.0690 26.6930 234° Southwest 467 537 34,000  Level FlightAware
08:15AM 64.0190 26.5340 234° Southwest 467 537 34,000  Level FlightAware
08:16AM 63.9680 26.3730 234° Southwest 468 539 34,000  Level FlightAware
08:17AM 63.9100 26.1930 234° Southwest 467 537 34,000  Level FlightAware
08:18AM 63.8590 26.0350 234° Southwest 467 537 34,000  Level FlightAware
08:18AM 63.8030 25.8630 234° Southwest 466 536 34,000  Level FlightAware
08:19AM 63.7520 25.7060 234° Southwest 463 533 34,000  Level FlightAware
08:20AM 63.7010 25.5520 233° Southwest 462 532 34,000  Level FlightAware
08:20AM 63.6480 25.3930 233° Southwest 461 531 34,000  Level FlightAware
08:21AM 63.5780 25.1840 233° Southwest 459 528 34,000  Level FlightAware
08:22AM 63.5220 25.0210 232° Southwest 456 525 34,000  Level FlightAware
08:23AM 63.4640 24.8500 233° Southwest 453 521 34,000  Level FlightAware
08:23AM 63.4140 24.7020 233° Southwest 451 519 34,000  Level FlightAware
08:24AM 63.3630 24.5570 232° Southwest 447 514 34,000  Level FlightAware
08:25AM 63.3150 24.4180 232° Southwest 448 516 34,000  Level FlightAware
08:25AM 63.2630 24.2700 232° Southwest 448 516 34,000  Level FlightAware
08:26AM 63.2030 24.0980 232° Southwest 446 513 34,000  Level FlightAware
08:27AM 63.1520 23.9560 232° Southwest 442 509 34,000  Level FlightAware
08:28AM 63.1010 23.8130 232° Southwest 443 510 34,000  Level FlightAware
08:28AM 63.0440 23.6540 232° Southwest 444 511 34,000  Level FlightAware
08:29AM 62.9930 23.5130 232° Southwest 440 506 34,000  Level FlightAware
08:30AM 62.9360 23.3570 231° Southwest 439 505 34,000  Level FlightAware
08:31AM 62.8170 23.0330 231° Southwest 435 501 34,000  Level FlightAware
08:32AM 62.7670 22.8970 231° Southwest 435 501 34,000  Level FlightAware
08:33AM 62.7100 22.7460 231° Southwest 436 502 34,000  Level FlightAware
08:33AM 62.6590 22.6110 231° Southwest 435 501 34,000  Level FlightAware
08:34AM 62.6000 22.4540 231° Southwest 434 499 34,000  Level FlightAware
08:35AM 62.5490 22.3210 230° Southwest 433 498 34,000  Level FlightAware
08:35AM 62.4990 22.1900 230° Southwest 432 497 34,000  Level FlightAware
08:36AM 62.4410 22.0390 230° Southwest 431 496 34,000  Level FlightAware
08:37AM 62.3890 21.9070 230° Southwest 430 495 34,000  Level FlightAware
08:38AM 62.3320 21.7600 230° Southwest 430 495 34,000  Level FlightAware
08:38AM 62.2810 21.6310 230° Southwest 427 491 34,000  Level FlightAware
08:39AM 62.2220 21.4830 229° Southwest 428 493 34,000  Level FlightAware
08:40AM 62.1700 21.3520 230° Southwest 429 494 34,000  Level FlightAware
08:40AM 62.1180 21.2210 230° Southwest 431 496 34,000  Level FlightAware
08:41AM 62.0590 21.0750 229° Southwest 435 501 34,000  Level FlightAware
08:42AM 62.0060 20.9470 229° Southwest 433 498 34,000  Level FlightAware
08:43AM 61.9460 20.8050 228° Southwest 424 488 34,000  Level FlightAware
08:43AM 61.8930 20.6770 229° Southwest 432 497 34,000  Level FlightAware
08:44AM 61.8330 20.5350 228° Southwest 432 497 34,000  Level FlightAware
08:45AM 61.7800 20.4100 228° Southwest 431 496 34,000  Level FlightAware
08:45AM 61.7280 20.2860 229° Southwest 423 487 34,000  Level FlightAware
08:46AM 61.6680 20.1460 228° Southwest 429 494 34,000  Level FlightAware
08:47AM 61.6140 20.0220 228° Southwest 427 491 34,000  Level FlightAware
08:47AM 61.5550 19.8850 228° Southwest 426 490 34,000  Level FlightAware
08:48AM 61.5020 19.7630 228° Southwest 426 490 34,000  Level FlightAware
08:49AM 61.4490 19.6410 228° Southwest 430 495 34,000  Level FlightAware
08:50AM 61.3870 19.5020 227° Southwest 427 491 34,000  Level FlightAware
08:50AM 61.3330 19.3800 227° Southwest 428 493 34,000  Level FlightAware
08:51AM 61.2710 19.2420 227° Southwest 428 493 34,000  Level FlightAware
08:52AM 61.2170 19.1220 227° Southwest 430 495 34,000  Level FlightAware
08:52AM 61.1630 19.0020 227° Southwest 430 495 34,000  Level FlightAware
08:53AM 61.1040 18.8710 227° Southwest 430 495 34,000  Level FlightAware
08:54AM 61.0500 18.7520 227° Southwest 428 493 34,000  Level FlightAware
08:54AM 60.9950 18.6330 226° Southwest 429 494 34,000  Level FlightAware
08:55AM 60.9330 18.4980 227° Southwest 429 494 34,000  Level FlightAware
08:56AM 60.8780 18.3790 227° Southwest 430 495 34,000  Level FlightAware
08:57AM 60.8170 18.2480 226° Southwest 430 495 34,000  Level FlightAware
08:57AM 60.7630 18.1330 226° Southwest 430 495 34,000  Level FlightAware
08:58AM 60.6990 17.9990 226° Southwest 430 495 34,000  Level FlightAware
08:59AM 60.6450 17.8840 226° Southwest 429 494 34,000  Level FlightAware
08:59AM 60.5900 17.7680 226° Southwest 429 494 34,000  Level FlightAware
09:00AM 60.5290 17.6400 226° Southwest 433 498 34,000  Level FlightAware
09:01AM 60.4720 17.5240 225° Southwest 431 496 34,000  Level FlightAware
09:01AM 60.4080 17.3920 226° Southwest 432 497 34,000  Level FlightAware
09:02AM 60.3520 17.2760 226° Southwest 433 498 34,000  Level FlightAware
09:03AM 60.2960 17.1620 225° Southwest 432 497 34,000  Level FlightAware
09:04AM 60.2340 17.0350 226° Southwest 433 498 34,000  Level FlightAware
09:04AM 60.1780 16.9240 225° Southwest 432 497 34,000  Level FlightAware
09:05AM 60.1210 16.8090 225° Southwest 432 497 34,000  Level FlightAware
09:06AM 60.0560 16.6790 225° Southwest 432 497 34,000  Level FlightAware
09:06AM 60.0000 16.5680 225° Southwest 434 499 34,000  Level FlightAware
09:07AM 59.9370 16.4430 225° Southwest 432 497 34,000  Level FlightAware
09:08AM 59.8800 16.3310 225° Southwest 433 498 34,000  Level FlightAware
09:08AM 59.8230 16.2200 224° Southwest 434 499 34,000  Level FlightAware
09:09AM 59.7600 16.0970 225° Southwest 434 499 34,000  Level FlightAware
09:10AM 59.7010 15.9830 224° Southwest 432 497 34,000  Level FlightAware
09:11AM 59.6380 15.8630 224° Southwest 434 499 34,000  Level FlightAware
09:11AM 59.5800 15.7510 224° Southwest 435 501 34,000  Level FlightAware
09:12AM 59.5150 15.6240 225° Southwest 434 499 34,000  Level FlightAware
09:13AM 59.4680 15.4990 234° Southwest 434 499 34,000  Level FlightAware
09:13AM 59.4190 15.3700 233° Southwest 431 496 34,000  Level FlightAware
09:14AM 59.3710 15.2510 232° Southwest 431 496 34,000  Level FlightAware
09:15AM 59.3140 15.1120 231° Southwest 431 496 34,000  Level FlightAware
09:15AM 59.2640 14.9910 231° Southwest 432 497 34,000  Level FlightAware
09:16AM 59.2090 14.8560 232° Southwest 433 498 34,000  Level FlightAware
09:17AM 59.1610 14.7310 233° Southwest 433 498 34,000  Level FlightAware
09:17AM 59.1120 14.6100 232° Southwest 434 499 34,000  Level FlightAware
09:18AM 59.0550 14.4680 232° Southwest 439 505 34,000  Level FlightAware
09:19AM 59.0060 14.3450 232° Southwest 440 506 34,000  Level FlightAware
09:20AM 58.9510 14.2080 232° Southwest 440 506 34,000  Level FlightAware
09:20AM 58.9060 14.0760 237° Southwest 441 507 34,000  Level FlightAware
09:21AM 58.8550 13.9230 237° Southwest 438 504 34,000  Level FlightAware
09:22AM 58.8120 13.7920 238° Southwest 437 503 34,000  Level FlightAware
09:22AM 58.7680 13.6620 237° Southwest 437 503 34,000  Level FlightAware
09:23AM 58.7190 13.5180 237° Southwest 438 504 34,000  Level FlightAware
09:24AM 58.6750 13.3870 237° Southwest 439 505 34,000  Level FlightAware
09:24AM 58.6300 13.2580 236° Southwest 440 506 34,000  Level FlightAware
09:25AM 58.5790 13.1090 237° Southwest 443 510 34,000  Level FlightAware
09:26AM 58.5340 12.9780 237° Southwest 445 512 34,000  Level FlightAware
09:27AM 58.4830 12.8330 236° Southwest 448 516 34,000  Level FlightAware
09:27AM 58.4380 12.7030 237° Southwest 443 510 34,000  Level FlightAware
09:28AM 58.3850 12.5540 236° Southwest 440 506 34,000  Level FlightAware
09:29AM 58.3400 12.4270 236° Southwest 442 509 34,000  Level FlightAware
09:29AM 58.2940 12.2980 236° Southwest 442 509 34,000  Level FlightAware
09:30AM 58.2460 12.1630 236° Southwest 443 510 34,000  Level FlightAware
09:31AM 58.1990 12.0340 235° Southwest 446 513 34,000  Level FlightAware
09:32AM 58.1440 11.8820 236° Southwest 442 509 34,000  Level FlightAware
09:32AM 58.0990 11.7590 235° Southwest 443 510 34,000  Level FlightAware
09:33AM 58.0530 11.6340 235° Southwest 442 509 34,000  Level FlightAware
09:34AM 58.0010 11.4930 235° Southwest 446 513 34,000  Level FlightAware
09:34AM 57.9520 11.3600 235° Southwest 443 510 34,000  Level FlightAware
09:35AM 57.8990 11.2180 235° Southwest 442 509 34,000  Level FlightAware
09:36AM 57.8540 11.0970 235° Southwest 442 509 34,000  Level FlightAware
09:36AM 57.8040 10.9650 235° Southwest 442 509 34,000  Level FlightAware
09:37AM 57.7540 10.8350 234° Southwest 443 510 34,000  Level FlightAware
09:38AM 57.7050 10.7040 235° Southwest 443 510 34,000  Level FlightAware
09:38AM 57.6580 10.5820 234° Southwest 443 510 34,000  Level FlightAware
09:39AM 57.6010 10.4440 232° Southwest 442 509 34,000  Level FlightAware
09:40AM 57.5500 10.3260 231° Southwest 445 512 34,000  Level FlightAware
09:41AM 57.4900 10.1910 230° Southwest 446 513 34,000  Level FlightAware
09:41AM 57.4330 10.0630 230° Southwest 447 514 34,000  Level FlightAware
09:42AM 57.3800 9.9450 230° Southwest 450 518 34,000  Level FlightAware
09:43AM 57.3230 9.8150 231° Southwest 449 517 34,000  Level FlightAware
09:43AM 57.2670 9.6920 230° Southwest 448 516 34,000  Level FlightAware
09:44AM 57.2150 9.5750 231° Southwest 447 514 34,000  Level FlightAware
09:45AM 57.1610 9.4560 230° Southwest 445 512 34,000  Level FlightAware
09:46AM 57.1040 9.3310 230° Southwest 445 512 34,000  Level FlightAware
09:46AM 57.0420 9.1970 230° Southwest 446 513 34,000  Level FlightAware
09:47AM 56.9890 9.0800 230° Southwest 445 512 34,000  Level FlightAware
09:48AM 56.9440 8.9840 229° Southwest 445 512 34,000  Level FlightAware
09:48AM 56.8850 8.8560 230° Southwest 446 513 34,000  Level FlightAware
09:49AM 56.8220 8.7230 229° Southwest 446 513 34,000  Level FlightAware
09:50AM 56.7690 8.6100 229° Southwest 446 513 34,000  Level FlightAware
09:50AM 56.7090 8.4820 230° Southwest 446 513 34,000  Level FlightAware
09:51AM 56.6540 8.3660 229° Southwest 446 513 34,000  Level FlightAware
09:52AM 56.6000 8.2540 229° Southwest 447 514 34,000  Level FlightAware
09:53AM 56.5430 8.1340 229° Southwest 447 514 34,000  Level FlightAware
09:53AM 56.4840 8.0130 229° Southwest 447 514 34,000  Level FlightAware
09:54AM 56.4240 7.8880 229° Southwest 448 516 34,000  Level FlightAware
09:55AM 56.3700 7.7770 229° Southwest 448 516 34,000  Level FlightAware
09:55AM 56.3150 7.6660 228° Southwest 447 514 34,000  Level FlightAware
09:56AM 56.2520 7.5370 229° Southwest 447 514 34,000  Level FlightAware
09:57AM 56.2000 7.4310 229° Southwest 447 514 34,000  Level FlightAware
09:57AM 56.1450 7.3200 228° Southwest 447 514 34,000  Level FlightAware
09:58AM 56.0820 7.1950 228° Southwest 447 514 34,000  Level FlightAware
09:59AM 56.0270 7.0840 228° Southwest 446 513 34,000  Level FlightAware
10:00AM 55.9640 6.9600 228° Southwest 446 513 34,000  Level FlightAware
10:00AM 55.9080 6.8500 228° Southwest 446 513 34,000  Level FlightAware
10:01AM 55.8490 6.7320 228° Southwest 445 512 34,000  Level FlightAware
10:02AM 55.7930 6.6220 228° Southwest 447 514 34,000 -1,740 Level FlightAware
10:02AM 55.7678 6.5709 228° Southwest 1 1 32,400 -2,700 Descending FlightAware UK
10:02AM 55.7434 6.5223 228° Southwest 1 1 32,500 3,960 Climbing FlightAware UK
10:02AM 55.7370 6.5150 228° Southwest 448 516 34,000 -180 Climbing FlightAware
10:03AM 55.6933 6.4247 228° Southwest 1 1 32,400  Descending FlightAware UK
10:03AM 55.6760 6.3960 228° Southwest 448 516 34,000 120 Climbing FlightAware
10:03AM 55.6418 6.3294 228° Southwest 1 1 32,500  Descending FlightAware UK
10:04AM 55.6230 6.2940 228° Southwest 450 518 34,000  Climbing FlightAware
10:04AM 55.5746 6.1994 228° Southwest 1 1 32,500  Descending FlightAware UK
10:04AM 55.5580 6.1690 228° Southwest 452 520 34,000 -180 Climbing FlightAware
10:05AM 55.5066 6.0700 228° Southwest 1 1 32,400  Descending FlightAware UK
10:05AM 55.5020 6.0610 228° Southwest 453 521 34,000 1,980 Climbing FlightAware
10:06AM 55.4430 5.9500 227° Southwest 452 520 34,000 -1,200 Level FlightAware
10:06AM 55.3872 5.8430 227° Southwest 502 578 32,500  Descending FlightAware UK
10:06AM 55.3870 5.8430 227° Southwest 450 518 34,000 -180 Climbing FlightAware
10:07AM 55.3358 5.7471 227° Southwest 502 578 32,400  Descending FlightAware UK
10:07AM 55.3230 5.7230 227° Southwest 448 516 34,000 180 Climbing FlightAware
10:07AM 55.2935 5.6671 227° Southwest 500 575 32,500  Descending FlightAware UK
10:08AM 55.2690 5.6220 227° Southwest 448 516 34,000 1,320 Climbing FlightAware
10:09AM 55.2030 5.4990 227° Southwest 448 516 34,000 -1,620 Level FlightAware
10:09AM 55.1746 5.4456 227° Southwest 502 578 32,400  Descending FlightAware UK
10:09AM 55.1460 5.3930 227° Southwest 446 513 34,000 1,380 Climbing FlightAware
10:10AM 55.0840 5.2770 227° Southwest 445 512 34,000 -1,500 Level FlightAware
10:10AM 55.0568 5.2252 227° Southwest 500 575 32,500 -2,340 Descending FlightAware UK
10:11AM 55.0229 5.1630 226° Southwest 500 575 32,500 3,600 Level FlightAware UK
10:11AM 55.0270 5.1720 226° Southwest 445 512 34,000 -360 Climbing FlightAware
10:11AM 54.9970 5.1170 226° Southwest 500 575 32,400 -2,400 Descending FlightAware UK
10:11AM 54.9635 5.0553 227° Southwest 500 575 32,400 3,420 Level FlightAware UK
10:11AM 54.9670 5.0630 227° Southwest 444 511 34,000  Climbing FlightAware
10:12AM 54.9039 4.9477 227° Southwest 498 573 32,400  Descending FlightAware UK
10:12AM 54.9070 4.9540 227° Southwest 443 510 34,000  Climbing FlightAware
10:13AM 54.8612 4.8713 227° Southwest 500 575 32,400  Descending FlightAware UK
10:13AM 54.8510 4.8520 227° Southwest 443 510 34,000  Climbing FlightAware
10:13AM 54.7854 4.7327 227° Southwest 498 573 32,400  Descending FlightAware UK
10:14AM 54.7890 4.7400 227° Southwest 441 507 34,000 2,220 Climbing FlightAware
10:14AM 54.7320 4.6380 226° Southwest 440 506 34,000  Level FlightAware
10:15AM 54.6670 4.5220 226° Southwest 439 505 34,000 -1,200 Level FlightAware
10:16AM 54.6077 4.4153 226° Southwest 498 573 32,400  Descending FlightAware UK
10:16AM 54.6110 4.4240 226° Southwest 443 510 34,000 2,280 Climbing FlightAware
10:16AM 54.5390 4.3440 213° Southwest 454 522 34,000  Level FlightAware
10:17AM 54.4570 4.2700 208° Southwest 457 526 34,000  Level FlightAware
10:18AM 54.3800 4.2010 208° Southwest 457 526 34,000  Level FlightAware
10:18AM 54.3070 4.1350 208° Southwest 457 526 34,000  Level FlightAware
10:19AM 54.2190 4.0560 208° Southwest 455 524 34,000  Level FlightAware
10:20AM 54.1460 3.9910 208° Southwest 451 519 34,000  Level FlightAware
10:21AM 54.0610 3.9150 208° Southwest 447 514 34,000 -1,200 Level FlightAware
10:21AM 53.9862 3.8507 208° Southwest 496 571 32,400  Descending FlightAware UK
10:21AM 53.9910 3.8530 208° Southwest 445 512 34,000  Climbing FlightAware
10:21AM 53.9533 3.8218 208° Southwest 498 573 32,400 -2,760 Descending FlightAware UK
10:22AM 53.9207 3.7928 208° Southwest 498 573 32,400 3,420 Level FlightAware UK
10:22AM 53.9060 3.7780 208° Southwest 443 510 34,000  Climbing FlightAware
10:22AM 53.8664 3.7449 208° Southwest 494 568 32,400 -2,400 Descending FlightAware UK
10:23AM 53.8340 3.7160 208° Southwest 498 573 32,500 4,800 Climbing FlightAware UK
10:23AM 53.8370 3.7180 208° Southwest 445 512 34,000 1,740 Climbing FlightAware
10:23AM 53.7540 3.6460 207° Southwest 442 509 33,900 -2,160 Descending FlightAware
10:24AM 53.6821 3.5842 207° Southwest 482 555 31,100 -2,100 Descending FlightAware UK
10:24AM 53.6800 3.5810 207° Southwest 426 490 32,500 -2,280 Climbing FlightAware
10:24AM 53.6415 3.5486 207° Southwest 480 552 30,200 -4,320 Descending FlightAware UK
10:25AM 53.6107 3.5221 207° Southwest 474 545 29,700 3,420 Descending FlightAware UK
10:25AM 53.6170 3.5270 207° Southwest 414 476 31,300 -1,020 Climbing FlightAware
10:25AM 53.5801 3.4952 207° Southwest 476 548 29,400 -3,300 Descending FlightAware UK
10:25AM 53.5486 3.4681 207° Southwest 480 552 29,400 4,140 Level FlightAware UK
10:25AM 53.5460 3.4650 207° Southwest 428 493 31,000 120 Climbing FlightAware
10:26AM 53.4638 3.3949 207° Southwest 486 559 29,500  Descending FlightAware UK
10:26AM 53.4680 3.3980 207° Southwest 430 495 31,000  Climbing FlightAware
10:27AM 53.4107 3.3495 207° Southwest 484 557 29,500  Descending FlightAware UK
10:27AM 53.3910 3.3320 207° Southwest 429 494 31,000  Climbing FlightAware
10:27AM 53.3258 3.2773 207° Southwest 484 557 29,500  Descending FlightAware UK
10:28AM 53.3180 3.2700 207° Southwest 430 495 31,000  Climbing FlightAware
10:28AM 53.2516 3.2140 207° Southwest 486 559 29,500  Descending FlightAware UK
10:28AM 53.2460 3.2090 207° Southwest 428 493 31,000 1,680 Climbing FlightAware
10:29AM 53.1690 3.1440 207° Southwest 429 494 31,000  Level FlightAware
10:30AM 53.0960 3.0820 207° Southwest 430 495 31,000 -1,620 Level FlightAware
10:30AM 53.0607 3.0528 207° Southwest 484 557 29,500 -2,280 Descending FlightAware UK
10:30AM 53.0186 3.0176 207° Southwest 464 534 29,500 3,060 Level FlightAware UK
10:30AM 53.0150 3.0140 207° Southwest 401 461 31,000 1,980 Climbing FlightAware
10:31AM 52.9520 2.9620 206° Southwest 374 430 31,000 -1,500 Level FlightAware
10:31AM 52.9158 2.9307 206° Southwest 428 493 29,500  Descending FlightAware UK
10:32AM 52.8910 2.9100 206° Southwest 367 422 31,000 -120 Climbing FlightAware
10:32AM 52.8344 2.8625 206° Southwest 428 493 29,400  Descending FlightAware UK
10:32AM 52.8210 2.8520 206° Southwest 363 418 31,000  Climbing FlightAware
10:33AM 52.7804 2.8183 206° Southwest 430 495 29,400  Descending FlightAware UK
10:33AM 52.7620 2.8040 206° Southwest 361 415 31,000 1,740 Climbing FlightAware
10:34AM 52.7010 2.7540 206° Southwest 360 414 31,000 -1,560 Level FlightAware
10:34AM 52.6729 2.7302 206° Southwest 426 490 29,500 -2,160 Descending FlightAware UK
10:34AM 52.6375 2.7009 207° Southwest 426 490 29,500 3,300 Level FlightAware UK
10:35AM 52.6360 2.7000 207° Southwest 358 412 31,000  Climbing FlightAware
10:35AM 52.6020 2.6714 207° Southwest 426 490 29,500 -2,340 Descending FlightAware UK
10:35AM 52.5755 2.6496 207° Southwest 426 490 29,500 4,680 Level FlightAware UK
10:35AM 52.5770 2.6510 207° Southwest 357 411 31,000  Climbing FlightAware
10:35AM 52.5488 2.6279 207° Southwest 424 488 29,500 -420 Descending FlightAware UK
10:36AM 52.5100 2.5970 207° Southwest 358 412 30,700 420 Climbing FlightAware
10:37AM 52.4520 2.5500 206° Southwest 345 397 30,000 -1,980 Descending FlightAware
10:37AM 52.4097 2.5147 206° Southwest 418 481 28,500  Descending FlightAware UK
10:37AM 52.3970 2.5040 206° Southwest 342 394 30,000 -240 Climbing FlightAware
10:38AM 52.3679 2.4802 206° Southwest 418 481 28,400  Descending FlightAware UK
10:38AM 52.3330 2.4460 206° Southwest 341 392 30,000  Climbing FlightAware
10:38AM 52.3027 2.4177 206° Southwest 420 483 28,400  Descending FlightAware UK
10:39AM 52.2810 2.3970 206° Southwest 344 396 30,000 60 Climbing FlightAware
10:39AM 52.2282 2.3469 206° Southwest 422 486 28,500  Descending FlightAware UK
10:39AM 52.2180 2.3370 206° Southwest 342 394 30,000  Climbing FlightAware
10:40AM 52.1794 2.3000 206° Southwest 420 483 28,500  Descending FlightAware UK
10:40AM 52.1630 2.2840 206° Southwest 341 392 30,000 -240 Climbing FlightAware
10:40AM 52.1388 2.2607 206° Southwest 418 481 28,400 -2,760 Descending FlightAware UK
10:41AM 52.1143 2.2374 210° Southwest 418 481 28,500 3,840 Climbing FlightAware UK
10:41AM 52.1090 2.2320 210° Southwest 345 397 30,000  Climbing FlightAware
10:41AM 52.0814 2.2064 210° Southwest 420 483 28,500 -720 Descending FlightAware UK
10:42AM 52.0480 2.1750 210° Southwest 343 395 29,500 -1,260 Climbing FlightAware
10:42AM 52.0071 2.1370 210° Southwest 412 474 27,400 -1,200 Descending FlightAware UK
10:42AM 51.9940 2.1250 210° Southwest 338 389 28,700 -1,440 Climbing FlightAware
10:42AM 51.9660 2.0998 210° Southwest 406 467 26,700 -1,200 Descending FlightAware UK
10:43AM 51.9410 2.0760 210° Southwest 333 383 27,900 1,680 Climbing FlightAware
10:43AM 51.9222 2.0541 216° Southwest 320 368 27,700 -1,020 Descending FlightAware ADS-B
10:43AM 51.9086 2.0345 222° Southwest 313 360 27,500 -4,260 Descending FlightAware ADS-B
10:44AM 51.8902 2.0021 222° Southwest 388 447 25,500 -4,020 Descending FlightAware UK
10:44AM 51.8766 1.9686 237° Southwest 386 444 25,100 960 Descending FlightAware UK
10:44AM 51.8620 1.9280 237° Southwest 299 344 26,200 60 Climbing FlightAware
10:45AM 51.8340 1.8510 240° Southwest 291 335 25,200 -3,000 Descending FlightAware
10:45AM 51.8150 1.7969 240° Southwest 362 417 23,000 -3,660 Descending FlightAware UK
10:46AM 51.8037 1.7638 241° Southwest 362 417 22,600 2,640 Descending FlightAware UK
10:46AM 51.8040 1.7620 241° Southwest 285 328 24,100 -1,020 Climbing FlightAware
10:46AM 51.7947 1.7144 241° Southwest 368 423 22,200 -3,780 Descending FlightAware UK
10:46AM 51.7914 1.6764 262° West 368 423 21,900 2,820 Descending FlightAware UK
10:46AM 51.7910 1.6690 262° West 289 333 23,300 -1,260 Climbing FlightAware
10:47AM 51.7867 1.6254 262° West 364 419 21,400 -3,600 Descending FlightAware UK
10:47AM 51.7831 1.5869 262° West 364 419 21,100 3,420 Descending FlightAware UK
10:47AM 51.7830 1.5850 262° West 291 335 22,600 -1,020 Climbing FlightAware
10:47AM 51.7785 1.5354 262° West 364 419 20,700 -3,540 Descending FlightAware UK
10:48AM 51.7751 1.4970 262° West 358 412 20,300 2,700 Descending FlightAware UK
10:48AM 51.7750 1.4900 262° West 284 327 21,800 -1,020 Climbing FlightAware
10:48AM 51.7705 1.4466 262° West 356 410 19,900 -1,080 Descending FlightAware UK
10:49AM 51.7670 1.4070 262° West 281 323 21,100 -1,020 Climbing FlightAware
10:49AM 51.7627 1.3603 262° West 352 405 19,200 -1,140 Descending FlightAware UK
10:49AM 51.7595 1.3247 262° West 282 325 20,400 -1,200 Climbing FlightAware ADS-B
10:49AM 51.7558 1.2853 262° West 350 403 18,500 -3,600 Descending FlightAware UK
10:50AM 51.7523 1.2480 261° West 344 396 18,200 2,100 Descending FlightAware UK
10:50AM 51.7506 1.2276 261° West 282 325 19,500 -1,620 Climbing FlightAware ADS-B
10:50AM 51.7467 1.1871 261° West 340 391 17,400 -4,140 Descending FlightAware UK
10:51AM 51.7434 1.1502 262° West 338 389 16,900 2,820 Descending FlightAware UK
10:51AM 51.7430 1.1490 262° West 278 320 18,400 3,240 Climbing FlightAware
10:51AM 51.7393 1.1060 262° West 273 314 18,100 -720 Descending FlightAware ADS-B
10:51AM 51.7337 1.0459 261° West 257 296 17,800 -2,520 Descending FlightAware ADS-B
10:52AM 51.7303 1.0110 261° West 302 348 16,000 -780 Descending FlightAware UK
10:52AM 51.7280 0.9859 261° West 238 274 17,400 -840 Climbing FlightAware ADS-B
10:52AM 51.7244 0.9488 261° West 290 334 15,500 -1,020 Descending FlightAware UK
10:53AM 51.7222 0.9246 261° West 231 266 16,800 -1,200 Climbing FlightAware ADS-B
10:53AM 51.7195 0.8977 261° West 284 327 14,900 -1,380 Descending FlightAware UK
10:53AM 51.7166 0.8661 261° West 230 265 16,000 480 Climbing FlightAware ADS-B
10:54AM 51.7117 0.8152 261° West 229 264 15,300 -1,380 Descending FlightAware ADS-B
10:54AM 51.7080 0.7770 261° West 228 262 14,800 -3,540 Descending FlightAware ADS-B
10:54AM 51.7050 0.7468 261° West 276 318 12,900 -1,200 Descending FlightAware UK
10:55AM 51.7030 0.7251 261° West 227 261 14,200 -1,440 Climbing FlightAware ADS-B
10:55AM 51.7002 0.6969 261° West 272 313 12,200 -1,440 Descending FlightAware UK
10:55AM 51.6982 0.6754 261° West 227 261 13,500 -1,200 Climbing FlightAware ADS-B
10:55AM 51.6943 0.6370 261° West 268 308 11,500 -1,440 Descending FlightAware UK
10:56AM 51.6932 0.6245 261° West 227 261 12,800 -1,500 Climbing FlightAware ADS-B
10:56AM 51.6904 0.5972 261° West 266 306 10,900 -1,380 Descending FlightAware UK
10:56AM 51.6882 0.5734 261° West 230 265 12,100 1,500 Climbing FlightAware ADS-B
10:57AM 51.6832 0.5223 261° West 229 264 12,000 -2,280 Descending FlightAware ADS-B
10:57AM 51.6805 0.4959 261° West 266 306 10,400  Descending FlightAware UK
10:57AM 51.6781 0.4709 261° West 229 264 12,000 1,380 Climbing FlightAware ADS-B
10:58AM 51.6731 0.4205 261° West 229 264 11,500 -1,020 Descending FlightAware ADS-B
10:58AM 51.6679 0.3692 261° West 230 265 11,000 -480 Descending FlightAware ADS-B
10:59AM 51.6622 0.3130 261° West 232 267 11,000  Level FlightAware ADS-B
10:59AM 51.6581 0.2719 261° West 234 269 11,000 -2,520 Level FlightAware ADS-B
10:59AM 51.6551 0.2418 261° West 262 302 9,300 -600 Descending FlightAware UK
11:00AM 51.6528 0.2187 261° West 234 269 10,700 -540 Climbing FlightAware ADS-B
11:00AM 51.6489 0.1801 261° West 260 299 9,000 -420 Descending FlightAware UK
11:00AM 51.6474 0.1656 261° West 236 272 10,500 4,200 Climbing FlightAware ADS-B
11:00AM 51.6453 0.1467 260° West 236 272 10,400 -600 Descending FlightAware ADS-B
11:00AM 51.6404 0.1294 245° Southwest 243 280 10,300 -540 Descending FlightAware ADS-B
11:01AM 51.6311 0.1122 229° Southwest 251 289 10,200 -600 Descending FlightAware ADS-B
11:01AM 51.6230 0.1028 216° Southwest 257 296 10,100 -420 Descending FlightAware ADS-B
11:01AM 51.6152 0.0972 204° Southwest 263 303 10,100 -420 Level FlightAware ADS-B
11:01AM 51.6057 0.0939 192° South 270 311 10,000 -480 Descending FlightAware ADS-B
11:01AM 51.5972 0.0938 180° South 277 319 10,000  Level FlightAware ADS-B
11:01AM 51.5923 0.0950 171° South 281 323 10,000 -600 Level FlightAware ADS-B
11:01AM 51.5833 0.0996 162° South 287 330 9,900 -540 Descending FlightAware ADS-B
11:01AM 51.5778 0.1044 151° Southeast 288 331 9,900  Level FlightAware ADS-B
11:02AM 51.5733 0.1099 143° Southeast 288 331 9,900 -600 Level FlightAware ADS-B
11:02AM 51.5681 0.1185 134° Southeast 289 333 9,800 -720 Descending FlightAware ADS-B
11:02AM 51.5653 0.1248 126° Southeast 289 333 9,800 -720 Level FlightAware ADS-B
11:02AM 51.5621 0.1344 118° Southeast 288 331 9,700 -600 Descending FlightAware ADS-B
11:02AM 51.5599 0.1450 108° East 285 328 9,700  Level FlightAware ADS-B
11:02AM 51.5588 0.1556 99° East 283 326 9,700 -600 Level FlightAware ADS-B
11:02AM 51.5589 0.1684 89° East 280 322 9,600 -840 Descending FlightAware ADS-B
11:02AM 51.5604 0.1867 82° East 276 318 9,500 -540 Descending FlightAware ADS-B
11:02AM 51.5626 0.2168 83° East 268 308 9,400 -420 Descending FlightAware ADS-B
11:03AM 51.5651 0.2473 82° East 260 299 9,300 -600 Descending FlightAware ADS-B
11:03AM 51.5679 0.2739 80° East 255 293 9,100 -600 Descending FlightAware ADS-B
11:03AM 51.5704 0.2856 71° East 250 288 9,100 -360 Level FlightAware ADS-B
11:03AM 51.5776 0.3031 56° Northeast 241 277 9,000 -420 Descending FlightAware ADS-B
11:03AM 51.5803 0.3074 45° Northeast 239 275 9,000 -540 Level FlightAware ADS-B
11:03AM 51.5880 0.3167 37° Northeast 234 269 8,900 -780 Descending FlightAware ADS-B
11:04AM 51.5945 0.3220 27° Northeast 228 262 8,800 -540 Descending FlightAware ADS-B
11:04AM 51.5998 0.3248 18° North 222 255 8,800 -720 Level FlightAware ADS-B
11:04AM 51.6037 0.3262 12° North 220 253 8,700 -600 Descending FlightAware ADS-B
11:04AM 51.6089 0.3270 North 217 250 8,700  Level FlightAware ADS-B
11:04AM 51.6140 0.3269 359° North 215 247 8,700 -540 Level FlightAware ADS-B
11:04AM 51.6215 0.3249 351° North 214 246 8,600 -600 Descending FlightAware ADS-B
11:04AM 51.6341 0.3159 336° Northwest 214 246 8,500 -480 Descending FlightAware ADS-B
11:04AM 51.6423 0.3040 318° Northwest 208 239 8,400 -720 Descending FlightAware ADS-B
11:05AM 51.6457 0.2963 305° West 207 238 8,300 -600 Descending FlightAware ADS-B
11:05AM 51.6474 0.2915 300° West 205 236 8,300  Level FlightAware ADS-B
11:05AM 51.6495 0.2837 293° West 206 237 8,300 -600 Level FlightAware ADS-B
11:05AM 51.6510 0.2756 287° West 208 239 8,200 -420 Descending FlightAware ADS-B
11:05AM 51.6520 0.2618 277° West 211 243 8,200 -480 Level FlightAware ADS-B
11:05AM 51.6518 0.2542 268° West 211 243 8,100 -960 Descending FlightAware ADS-B
11:05AM 51.6507 0.2402 263° West 210 242 8,000 -480 Descending FlightAware ADS-B
11:05AM 51.6505 0.2335 267° West 208 239 8,000  Level FlightAware ADS-B
11:05AM 51.6505 0.2187 270° West 212 244 8,000  Level FlightAware ADS-B
11:06AM 51.6501 0.1955 268° West 213 245 8,000  Level FlightAware ADS-B
11:06AM 51.6485 0.1698 264° West 210 242 8,000  Level FlightAware ADS-B
11:06AM 51.6475 0.1507 265° West 211 243 8,000  Level FlightAware ADS-B
11:06AM 51.6475 0.1452 270° West 212 244 8,000  Level FlightAware ADS-B
11:06AM 51.6477 0.1313 271° West 209 241 8,000  Level FlightAware ADS-B
11:07AM 51.6485 0.1064 273° West 211 243 8,000  Level FlightAware ADS-B
11:07AM 51.6489 0.0828 272° West 211 243 8,000  Level FlightAware ADS-B
11:07AM 51.6493 0.0586 272° West 212 244 8,000  Level FlightAware ADS-B
11:07AM 51.6496 0.0315 271° West 211 243 8,000  Level FlightAware ADS-B
11:08AM 51.6499 0.0113 271° West 210 242 8,000  Level FlightAware ADS-B
11:08AM 51.6503 -0.0127 272° West 209 241 8,000  Level FlightAware ADS-B
11:08AM 51.6505 -0.0307 271° West 207 238 8,000  Level FlightAware ADS-B
11:08AM 51.6509 -0.0546 272° West 207 238 8,000  Level FlightAware ADS-B
11:09AM 51.6513 -0.0745 272° West 208 239 8,000  Level FlightAware ADS-B
11:09AM 51.6517 -0.0992 272° West 210 242 8,000  Level FlightAware ADS-B
11:09AM 51.6521 -0.1233 272° West 212 244 8,000  Level FlightAware ADS-B
11:09AM 51.6523 -0.1473 271° West 207 238 8,000  Level FlightAware ADS-B
11:10AM 51.6526 -0.1725 271° West 205 236 8,000  Level FlightAware ADS-B
11:10AM 51.6530 -0.1958 272° West 204 235 8,000  Level FlightAware ADS-B
11:10AM 51.6534 -0.2193 272° West 200 230 8,000  Level FlightAware ADS-B
11:10AM 51.6537 -0.2417 271° West 204 235 8,000  Level FlightAware ADS-B
11:11AM 51.6540 -0.2585 272° West 207 238 8,000  Level FlightAware ADS-B
11:11AM 51.6542 -0.2709 272° West 207 238 8,000 -360 Level FlightAware ADS-B
11:11AM 51.6544 -0.2876 271° West 208 239 7,900 -480 Descending FlightAware ADS-B
11:11AM 51.6543 -0.2937 269° West 208 239 7,900 -780 Level FlightAware ADS-B
11:11AM 51.6539 -0.2988 263° West 210 242 7,800 -900 Descending FlightAware ADS-B
11:11AM 51.6532 -0.3036 257° West 211 243 7,800  Level FlightAware ADS-B
11:11AM 51.6518 -0.3097 250° West 212 244 7,800 -780 Level FlightAware ADS-B
11:11AM 51.6497 -0.3156 240° Southwest 213 245 7,700 -900 Descending FlightAware ADS-B
11:11AM 51.6477 -0.3194 230° Southwest 214 246 7,700  Level FlightAware ADS-B
11:11AM 51.6450 -0.3236 223° Southwest 215 247 7,700 -720 Level FlightAware ADS-B
11:11AM 51.6410 -0.3279 214° Southwest 217 250 7,600 -1,380 Descending FlightAware ADS-B
11:11AM 51.6370 -0.3308 204° Southwest 220 253 7,500 -1,740 Descending FlightAware ADS-B
11:11AM 51.6340 -0.3321 195° South 222 255 7,400 -900 Descending FlightAware ADS-B
11:12AM 51.6300 -0.3331 189° South 224 258 7,400 -720 Level FlightAware ADS-B
11:12AM 51.6251 -0.3330 179° South 228 262 7,300 -1,380 Descending FlightAware ADS-B
11:12AM 51.6208 -0.3317 170° South 230 265 7,200 -1,140 Descending FlightAware ADS-B
11:12AM 51.6141 -0.3275 159° South 233 268 7,100 -1,020 Descending FlightAware ADS-B
11:12AM 51.6100 -0.3230 145° Southeast 232 267 7,000 -600 Descending FlightAware ADS-B
11:12AM 51.6058 -0.3162 135° Southeast 232 267 7,000 -720 Level FlightAware ADS-B
11:12AM 51.6036 -0.3112 126° Southeast 231 266 6,900 -1,200 Descending FlightAware ADS-B
11:12AM 51.6007 -0.3010 115° Southeast 231 266 6,800 -600 Descending FlightAware ADS-B
11:12AM 51.5992 -0.2935 108° East 231 266 6,800 -780 Level FlightAware ADS-B
11:12AM 51.5984 -0.2880 103° East 230 265 6,700 -900 Descending FlightAware ADS-B
11:13AM 51.5946 -0.2593 102° East 229 264 6,500 -720 Descending FlightAware ADS-B
11:13AM 51.5909 -0.2319 102° East 223 257 6,300 -600 Descending FlightAware ADS-B
11:13AM 51.5874 -0.2063 102° East 221 254 6,200 -540 Descending FlightAware ADS-B
11:13AM 51.5831 -0.1751 103° East 219 252 6,000 -540 Descending FlightAware ADS-B
11:14AM 51.5797 -0.1507 103° East 220 253 5,900 -420 Descending FlightAware ADS-B
11:14AM 51.5763 -0.1260 103° East 221 254 5,800 -540 Descending FlightAware ADS-B
11:14AM 51.5722 -0.0967 103° East 224 258 5,600 -540 Descending FlightAware ADS-B
11:15AM 51.5685 -0.0699 103° East 221 254 5,500 -420 Descending FlightAware ADS-B
11:15AM 51.5640 -0.0446 106° East 223 257 5,400 -540 Descending FlightAware ADS-B
11:15AM 51.5505 -0.0237 136° Southeast 216 249 5,200 -540 Descending FlightAware ADS-B
11:15AM 51.5461 -0.0214 162° South 213 245 5,200 -600 Level FlightAware ADS-B
11:15AM 51.5400 -0.0195 169° South 209 241 5,100 -720 Descending FlightAware ADS-B
11:16AM 51.5215 -0.0168 175° South 206 237 4,900 -540 Descending FlightAware ADS-B
11:16AM 51.5179 -0.0175 188° South 203 234 4,900 -360 Level FlightAware ADS-B
11:16AM 51.5068 -0.0268 207° Southwest 197 227 4,800 -600 Descending FlightAware ADS-B
11:16AM 51.5026 -0.0346 229° Southwest 192 221 4,700 -540 Descending FlightAware ADS-B
11:16AM 51.4946 -0.0527 235° Southwest 191 220 4,600 -240 Descending FlightAware ADS-B
11:16AM 51.4891 -0.0651 234° Southwest 190 219 4,600 -540 Level FlightAware ADS-B
11:17AM 51.4825 -0.0819 238° Southwest 195 224 4,400 -900 Descending FlightAware ADS-B
11:17AM 51.4807 -0.0901 251° West 195 224 4,300 -1,200 Descending FlightAware ADS-B
11:17AM 51.4798 -0.0957 256° West 197 227 4,200 -1,200 Descending FlightAware ADS-B
11:17AM 51.4789 -0.1036 260° West 196 226 4,100 -1,020 Descending FlightAware ADS-B
11:17AM 51.4783 -0.1121 264° West 198 228 4,000 -1,140 Descending FlightAware ADS-B
11:17AM 51.4780 -0.1275 268° West 198 228 3,800 -1,200 Descending FlightAware ADS-B
11:18AM 51.4783 -0.1572 271° West 182 209 3,400 -1,080 Descending FlightAware ADS-B
11:18AM 51.4782 -0.1797 270° West 169 194 3,100 -900 Descending FlightAware ADS-B
11:18AM 51.4782 -0.1997 270° West 158 182 2,900 -900 Descending FlightAware ADS-B
11:18AM 51.4781 -0.2207 270° West 160 184 2,600 -900 Descending FlightAware ADS-B
11:19AM 51.4780 -0.2653 270° West 161 185 2,100 -2,640 Descending FlightAware ADS-B
11:19AM 51.4780 -0.2823 270° West 166 191 300 -900 Descending FlightAware UK
11:20AM 51.4780 -0.3090 270° West 152 175 1,500 1,140 Climbing FlightAware
11:20AM 51.4780 -0.3310 270° West 159 183 1,200 -780 Descending FlightAware
11:21AM 51.4780 -0.3830 270° West 137 158 600 -720 Descending FlightAware
11:21AM 51.4780 -0.4080 270° West 137 158 300 -480 Descending FlightAware
11:22AM 51.4770 -0.4510 268° West 139 160 100 -300 Descending FlightAware